Time;durP1;ratioP1;P1;durP2;ratioP2;P2;SDS_P1;SDS_P2;PMS_P1;PMS_P2;Temp;Humidity;BMP_temperature;BMP_pressure;BME280_temperature;BME280_humidity;BME280_pressure;Samples;Min_cycle;Max_cycle;Signal;HPM_P1;HPM_P2
2023/10/08 00:01:14;;;;;;;;;;;;;;;16.36;82.00;102236.59;4933448;29;19957;-96
2023/10/08 00:04:04;;;;;;;;;;;;;;;16.42;81.68;102242.00;4932732;29;19955;-96
2023/10/08 00:09:35;;;;;;;;;;;;;;;16.31;81.85;102252.28;4922844;29;19943;-96
2023/10/08 00:12:08;;;;;;;;;;;;;;;16.27;82.08;102250.44;4937627;29;19919;-96
2023/10/08 00:14:48;;;;;;;;;;;;;;;16.20;82.49;102236.25;4922863;29;19915;-96
2023/10/08 00:17:25;;;;;;;;;;;;;;;16.19;82.23;102234.47;4895330;29;19939;-96
2023/10/08 00:20:09;;;;;;;;;;;;;;;16.17;82.79;102244.94;4923033;29;19958;-96
2023/10/08 00:23:10;;;;;;;;;;;;;;;16.12;82.85;102251.84;4921699;29;19962;-96
2023/10/08 00:25:50;;;;;;;;;;;;;;;16.08;83.02;102251.75;4937785;29;19914;-96
2023/10/08 00:28:21;;;;;;;;;;;;;;;16.04;82.79;102257.78;4921596;29;19984;-96
2023/10/08 00:30:49;;;;;;;;;;;;;;;15.98;83.05;102253.28;4902390;29;19915;-96
2023/10/08 00:33:25;;;;;;;;;;;;;;;15.99;83.06;102249.81;4899385;29;19916;-96
2023/10/08 00:36:17;;;;;;;;;;;;;;;15.92;83.11;102264.53;4898344;29;19915;-96
2023/10/08 00:38:53;;;;;;;;;;;;;;;15.88;83.18;102265.28;4903477;29;19948;-96
2023/10/08 00:41:22;;;;;;;;;;;;;;;15.86;83.29;102255.59;4898220;29;19915;-96
2023/10/08 00:43:51;;;;;;;;;;;;;;;15.85;83.63;102265.22;4896697;29;19984;-96
2023/10/08 00:46:47;;;;;;;;;;;;;;;15.83;83.25;102253.81;4898166;29;19923;-96
2023/10/08 00:54:46;;;;;;;;;;;;;;;15.73;84.23;102267.50;4913787;29;19916;-96
2023/10/08 00:57:21;;;;;;;;;;;;;;;15.66;83.91;102263.84;4899698;29;19970;-96
2023/10/08 00:59:56;;;;;;;;;;;;;;;15.61;84.12;102271.63;4930292;29;19906;-96
2023/10/08 01:02:27;;;;;;;;;;;;;;;15.59;84.07;102261.91;4898641;29;19919;-96
2023/10/08 01:04:55;;;;;;;;;;;;;;;15.54;84.04;102263.53;4895657;29;19915;-96
2023/10/08 01:07:21;;;;;;;;;;;;;;;15.51;84.29;102248.59;4895104;29;19915;-96
2023/10/08 01:09:51;;;;;;;;;;;;;;;15.50;84.51;102256.41;4893494;29;19939;-96
2023/10/08 01:12:19;;;;;;;;;;;;;;;15.48;84.74;102246.75;4892161;29;19915;-96
2023/10/08 01:14:49;;;;;;;;;;;;;;;15.44;84.57;102244.91;4924619;29;20297;-96
2023/10/08 01:17:16;;;;;;;;;;;;;;;15.43;84.59;102245.75;4891172;29;19923;-96
2023/10/08 01:19:50;;;;;;;;;;;;;;;15.38;84.80;102239.50;4896084;29;19916;-96
2023/10/08 01:22:21;;;;;;;;;;;;;;;15.38;85.13;102243.84;4894981;29;19915;-96
2023/10/08 01:24:56;;;;;;;;;;;;;;;15.35;85.21;102244.69;4927559;29;19915;-96
2023/10/08 01:27:24;;;;;;;;;;;;;;;15.30;85.69;102241.91;4900437;29;20274;-96
2023/10/08 01:30:41;;;;;;;;;;;;;;;15.28;85.41;102238.34;4901623;29;19934;-96
2023/10/08 01:32:47;;;;;;;;;;;;;;;15.28;85.72;102226.97;4915367;29;19915;-96
2023/10/08 01:35:26;;;;;;;;;;;;;;;15.26;85.44;102228.66;4901716;29;19939;-96
2023/10/08 01:37:56;;;;;;;;;;;;;;;15.25;86.15;102226.88;4897729;29;19922;-96
2023/10/08 01:40:24;;;;;;;;;;;;;;;15.23;86.22;102221.56;4898793;29;19906;-96
2023/10/08 01:43:05;;;;;;;;;;;;;;;15.23;86.43;102218.06;4885219;29;19927;-96
2023/10/08 01:45:33;;;;;;;;;;;;;;;15.22;86.06;102213.66;4900195;29;19921;-96
2023/10/08 01:48:01;;;;;;;;;;;;;;;15.19;85.78;102229.34;4899018;29;19976;-96
2023/10/08 01:50:30;;;;;;;;;;;;;;;15.20;86.01;102234.63;4899535;29;19957;-96
2023/10/08 01:53:00;;;;;;;;;;;;;;;15.19;86.14;102234.59;4897488;29;19927;-96
2023/10/08 01:55:26;;;;;;;;;;;;;;;15.16;86.68;102232.75;4897756;29;19922;-96
2023/10/08 01:57:57;;;;;;;;;;;;;;;15.15;86.32;102245.84;4898790;29;19915;-96
2023/10/08 02:00:42;;;;;;;;;;;;;;;15.14;86.57;102247.59;4899548;29;19915;-96
2023/10/08 02:03:10;;;;;;;;;;;;;;;15.12;86.88;102260.69;4899926;29;19923;-96
2023/10/08 02:05:53;;;;;;;;;;;;;;;15.11;86.73;102255.41;4932014;29;19938;-96
2023/10/08 02:08:21;;;;;;;;;;;;;;;15.09;87.12;102257.06;4930002;29;19920;-96
2023/10/08 02:10:52;;;;;;;;;;;;;;;15.10;86.91;102257.13;4932100;29;19979;-96
2023/10/08 02:13:18;;;;;;;;;;;;;;;15.07;86.75;102257.03;4901184;29;19915;-96
2023/10/08 02:15:47;;;;;;;;;;;;;;;15.08;87.49;102250.94;4900712;29;19931;-96
2023/10/08 02:18:16;;;;;;;;;;;;;;;15.08;86.93;102261.44;4899765;29;19939;-96
2023/10/08 02:20:44;;;;;;;;;;;;;;;15.06;86.93;102250.03;4903734;29;19899;-96
2023/10/08 02:23:17;;;;;;;;;;;;;;;15.02;87.39;102255.13;4904514;29;19963;-96
2023/10/08 02:25:50;;;;;;;;;;;;;;;15.00;87.44;102255.09;4935577;29;19911;-96
2023/10/08 02:28:25;;;;;;;;;;;;;;;14.99;87.72;102249.78;4904772;29;19934;-96
2023/10/08 02:31:24;;;;;;;;;;;;;;;14.98;87.61;102253.28;4924899;29;19934;-96
2023/10/08 02:33:59;;;;;;;;;;;;;;;14.97;88.48;102262.88;4937101;29;19916;-96
2023/10/08 02:36:41;;;;;;;;;;;;;;;14.94;87.94;102265.41;4908924;29;19955;-96
2023/10/08 02:39:27;;;;;;;;;;;;;;;14.91;87.81;102265.34;4905272;29;19915;-96
2023/10/08 02:41:58;;;;;;;;;;;;;;;14.89;87.88;102260.03;4904329;29;19940;-96
2023/10/08 02:44:44;;;;;;;;;;;;;;;14.87;88.22;102264.34;4903542;29;19919;-96
2023/10/08 02:47:16;;;;;;;;;;;;;;;14.87;88.75;102276.59;4934939;29;19979;-96
2023/10/08 02:49:52;;;;;;;;;;;;;;;14.84;88.70;102279.13;4902440;29;19926;-96
2023/10/08 02:52:28;;;;;;;;;;;;;;;14.81;88.59;102277.28;4899363;29;20288;-96
2023/10/08 02:55:04;;;;;;;;;;;;;;;14.78;88.40;102279.84;4898624;29;19915;-96
2023/10/08 02:57:32;;;;;;;;;;;;;;;14.77;88.64;102289.44;4901317;29;19915;-96
2023/10/08 03:00:03;;;;;;;;;;;;;;;14.76;89.08;102287.66;4902431;29;19930;-96
2023/10/08 03:02:33;;;;;;;;;;;;;;;14.72;88.61;102280.53;4904333;29;19919;-96
2023/10/08 03:04:58;;;;;;;;;;;;;;;14.75;88.79;102280.63;4905069;29;19919;-96
2023/10/08 03:07:35;;;;;;;;;;;;;;;14.74;88.97;102276.25;4905318;29;19923;-96
2023/10/08 03:10:05;;;;;;;;;;;;;;;14.72;88.85;102275.28;4905952;29;19958;-96
2023/10/08 03:12:36;;;;;;;;;;;;;;;14.72;88.99;102280.53;4905874;29;19915;-96
2023/10/08 03:15:15;;;;;;;;;;;;;;;14.73;88.93;102279.69;4903595;29;19900;-96
2023/10/08 03:17:48;;;;;;;;;;;;;;;14.73;89.25;102286.66;4902992;29;19923;-96
2023/10/08 03:20:37;;;;;;;;;;;;;;;14.72;89.59;102287.53;4903256;29;19900;-96
2023/10/08 03:23:07;;;;;;;;;;;;;;;14.67;89.61;102287.41;4933994;29;19920;-96
2023/10/08 03:25:41;;;;;;;;;;;;;;;14.66;89.45;102293.47;4904414;29;19915;-96
2023/10/08 03:28:18;;;;;;;;;;;;;;;14.66;89.61;102296.09;4905513;29;19926;-96
2023/10/08 03:31:02;;;;;;;;;;;;;;;14.66;89.52;102298.72;4904445;29;19915;-96
2023/10/08 03:33:37;;;;;;;;;;;;;;;14.66;90.18;102301.34;4905321;29;19915;-96
2023/10/08 03:36:33;;;;;;;;;;;;;;;14.65;90.08;102293.44;4905429;29;19910;-96
2023/10/08 03:39:10;;;;;;;;;;;;;;;14.65;90.43;102283.81;4904993;29;19910;-96
2023/10/08 03:42:12;;;;;;;;;;;;;;;14.65;90.11;102288.19;4906279;29;19955;-96
2023/10/08 03:44:42;;;;;;;;;;;;;;;14.65;90.18;102296.94;4937715;29;19923;-96
2023/10/08 03:47:18;;;;;;;;;;;;;;;14.66;90.18;102298.72;4937109;29;19920;-96
2023/10/08 03:49:51;;;;;;;;;;;;;;;14.65;90.94;102301.31;4937134;29;19931;-96
2023/10/08 03:52:25;;;;;;;;;;;;;;;14.64;90.17;102296.91;4905858;29;19943;-96
2023/10/08 03:57:50;;;;;;;;;;;;;;;14.62;90.86;102293.34;4920486;29;19922;-96
2023/10/08 04:00:42;;;;;;;;;;;;;;;14.63;90.40;102301.25;4905635;29;19915;-96
2023/10/08 04:03:11;;;;;;;;;;;;;;;14.64;90.82;102308.25;4938132;29;19946;-96
2023/10/08 04:06:49;;;;;;;;;;;;;;;14.63;90.44;102305.59;4922295;29;19900;-96
2023/10/08 04:08:58;;;;;;;;;;;;;;;14.64;90.76;102292.53;4916580;29;19916;-96
2023/10/08 04:11:35;;;;;;;;;;;;;;;14.63;90.69;102300.34;4902130;29;19915;-96
2023/10/08 04:14:02;;;;;;;;;;;;;;;14.63;90.73;102293.38;4930764;29;19916;-96
2023/10/08 04:16:30;;;;;;;;;;;;;;;14.64;90.50;102303.03;4901357;29;19931;-96
2023/10/08 04:19:03;;;;;;;;;;;;;;;14.64;90.84;102308.25;4903494;29;19899;-96
2023/10/08 04:21:35;;;;;;;;;;;;;;;14.62;90.55;102325.69;4922280;29;19920;-96
2023/10/08 04:24:28;;;;;;;;;;;;;;;14.60;91.03;102324.75;4934369;29;19907;-96
2023/10/08 04:29:44;;;;;;;;;;;;;;;14.53;91.62;102322.78;5277860;23;19942;-96
2023/10/08 04:32:30;;;;;;;;;;;;;;;14.51;91.36;102332.31;4923928;29;19950;-96
2023/10/08 04:35:07;;;;;;;;;;;;;;;14.50;91.86;102320.06;4922081;29;19923;-96
2023/10/08 04:37:33;;;;;;;;;;;;;;;14.46;91.59;102323.44;4921894;29;19926;-96
2023/10/08 04:40:02;;;;;;;;;;;;;;;14.46;91.31;102329.56;4921430;29;19952;-96
2023/10/08 04:42:30;;;;;;;;;;;;;;;14.46;91.65;102333.91;4920010;29;19926;-96
2023/10/08 04:45:00;;;;;;;;;;;;;;;14.43;91.42;102340.81;4919565;29;19915;-96
2023/10/08 04:47:35;;;;;;;;;;;;;;;14.40;91.82;102342.47;4920628;29;19915;-96
2023/10/08 04:50:04;;;;;;;;;;;;;;;14.35;92.10;102344.03;4920572;29;19975;-96
2023/10/08 04:52:42;;;;;;;;;;;;;;;;;;;;;
2023/10/08 04:55:20;;;;;;;;;;;;;;;14.27;92.12;102347.31;4920081;29;19939;-96
2023/10/08 04:57:53;;;;;;;;;;;;;;;14.25;92.07;102345.47;4920583;29;19919;-96
2023/10/08 05:00:43;;;;;;;;;;;;;;;14.23;92.46;102349.78;4921207;29;19914;-96
2023/10/08 05:03:20;;;;;;;;;;;;;;;14.21;92.30;102348.88;4918990;29;19959;-96
2023/10/08 05:11:46;;;;;;;;;;;;;;;14.22;92.72;102356.78;4939205;29;19975;-96
2023/10/08 05:14:06;;;;;;;;;;;;;;;14.23;92.76;102363.78;4938056;29;19903;-96
2023/10/08 05:17:02;;;;;;;;;;;;;;;14.21;93.26;102365.47;4920666;29;19915;-96
2023/10/08 05:19:48;;;;;;;;;;;;;;;14.14;93.46;102363.50;4921079;29;19951;-96
2023/10/08 05:25:24;;;;;;;;;;;;;;;14.06;93.78;102363.25;4937453;29;19940;-96
2023/10/08 05:38:49;;;;;;;;;;;;;;;14.21;93.72;102390.81;4939618;29;19915;-96
2023/10/08 07:31:36;;;;;;;;;;;;;;;14.24;96.51;102419.75;5057055;23;19911;-96
2023/10/08 07:36:51;;;;;;;;;;;;;;;14.31;96.63;102437.47;5447989;23;19928;-96
2023/10/08 07:41:53;;;;;;;;;;;;;;;14.41;96.39;102442.19;4911835;29;19998;-96
2023/10/08 07:44:21;;;;;;;;;;;;;;;14.46;96.49;102438.81;4871224;29;19930;-96
2023/10/08 07:46:51;;;;;;;;;;;;;;;14.51;96.71;102435.53;4887272;29;19916;-96
2023/10/08 07:49:30;;;;;;;;;;;;;;;14.57;95.96;102445.28;4885743;29;19978;-96
2023/10/08 07:51:57;;;;;;;;;;;;;;;14.59;96.38;102441.00;4885239;29;19927;-96
2023/10/08 07:54:34;;;;;;;;;;;;;;;14.63;95.98;102437.69;4886563;29;19920;-96
2023/10/08 07:57:09;;;;;;;;;;;;;;;14.69;96.06;102442.25;4886299;29;19916;-96
2023/10/08 07:59:38;;;;;;;;;;;;;;;14.72;95.95;102437.97;4885849;29;19915;-96
2023/10/08 08:02:09;;;;;;;;;;;;;;;14.75;96.11;102445.94;4886849;29;20370;-96
2023/10/08 08:05:16;;;;;;;;;;;;;;;14.81;96.49;102447.88;4887852;29;19919;-96
2023/10/08 08:08:05;;;;;;;;;;;;;;;14.88;96.57;102448.97;4829560;29;19917;-96
2023/10/08 08:13:39;;;;;;;;;;;;;;;14.94;97.44;102472.78;4896373;29;19943;-96
2023/10/08 08:16:16;;;;;;;;;;;;;;;14.99;96.92;102473.81;4873971;29;19916;-96
2023/10/08 08:18:48;;;;;;;;;;;;;;;15.04;97.79;102485.34;4881491;29;19920;-96
2023/10/08 08:21:15;;;;;;;;;;;;;;;15.09;97.88;102485.47;4879507;29;19970;-96
2023/10/08 08:24:08;;;;;;;;;;;;;;;15.14;97.89;102486.53;4886010;29;19939;-96
2023/10/08 08:26:41;;;;;;;;;;;;;;;15.19;98.11;102492.78;4899983;29;19916;-96
2023/10/08 08:29:15;;;;;;;;;;;;;;;15.25;97.72;102502.59;4883307;29;19919;-96
2023/10/08 08:31:46;;;;;;;;;;;;;;;15.27;97.92;102504.44;4901804;29;20001;-96
2023/10/08 08:34:19;;;;;;;;;;;;;;;15.32;98.30;102515.06;4901480;29;19915;-96
2023/10/08 08:36:48;;;;;;;;;;;;;;;15.36;98.61;102505.56;4892308;29;19924;-96
2023/10/08 08:39:28;;;;;;;;;;;;;;;15.41;98.07;102509.22;4905377;29;19900;-96
2023/10/08 08:42:10;;;;;;;;;;;;;;;15.48;97.91;102512.09;4882096;29;19992;-96
2023/10/08 08:44:45;;;;;;;;;;;;;;;15.55;98.46;102517.53;4843010;29;19977;-96
2023/10/08 09:03:07;;;;;;;;;;;;;;;15.87;99.04;102509.72;5212351;23;19927;-96
2023/10/08 09:05:36;;;;;;;;;;;;;;;15.90;100.00;102512.44;4882347;29;19919;-96
2023/10/08 09:08:04;;;;;;;;;;;;;;;15.93;99.90;102509.88;4876994;29;19916;-96
2023/10/08 09:10:58;;;;;;;;;;;;;;;15.99;99.75;102515.34;4865656;29;19971;-96
2023/10/08 09:13:25;;;;;;;;;;;;;;;16.04;99.81;102516.34;4878857;29;19915;-96
2023/10/08 09:16:17;;;;;;;;;;;;;;;16.08;98.97;102520.84;4868847;29;19916;-96
2023/10/08 09:18:48;;;;;;;;;;;;;;;16.19;98.49;102522.88;4866487;29;20460;-96
2023/10/08 09:21:22;;;;;;;;;;;;;;;16.26;99.72;102524.81;4889075;29;19998;-96
2023/10/08 09:23:51;;;;;;;;;;;;;;;16.31;99.05;102517.97;4883596;29;19924;-96
2023/10/08 09:26:20;;;;;;;;;;;;;;;16.37;99.34;102517.22;4878135;29;19954;-96
2023/10/08 09:28:58;;;;;;;;;;;;;;;16.42;99.87;102520.84;4870514;29;20326;-96
2023/10/08 09:31:35;;;;;;;;;;;;;;;16.44;99.39;102525.31;4865175;29;19911;-96
2023/10/08 09:34:02;;;;;;;;;;;;;;;16.49;99.05;102523.69;4857564;29;19915;-96
2023/10/08 09:36:34;;;;;;;;;;;;;;;16.56;98.59;102529.13;4882106;29;19980;-96
2023/10/08 09:39:06;;;;;;;;;;;;;;;16.64;99.02;102522.31;4872932;29;19915;-96
2023/10/08 09:41:35;;;;;;;;;;;;;;;16.76;98.34;102525.25;4877189;29;19924;-96
2023/10/08 09:44:00;;;;;;;;;;;;;;;16.94;98.31;102527.47;4878773;29;19975;-96
2023/10/08 09:46:37;;;;;;;;;;;;;;;17.08;98.64;102526.94;4873307;29;19919;-96
2023/10/08 09:49:07;;;;;;;;;;;;;;;17.17;98.73;102517.47;4862688;29;19916;-96
2023/10/08 09:51:38;;;;;;;;;;;;;;;17.26;98.71;102513.28;4868871;29;19915;-96
2023/10/08 09:54:21;;;;;;;;;;;;;;;17.33;98.51;102509.94;4863903;29;20043;-96
2023/10/08 09:56:49;;;;;;;;;;;;;;;17.41;97.98;102513.66;4862293;29;19923;-96
2023/10/08 09:59:15;;;;;;;;;;;;;;;17.30;97.15;102516.03;4864637;29;19922;-96
2023/10/08 10:01:50;;;;;;;;;;;;;;;17.15;97.60;102506.03;4873699;29;19923;-96
2023/10/08 10:04:32;;;;;;;;;;;;;;;17.12;98.23;102500.69;4877832;29;19924;-96
2023/10/08 10:07:16;;;;;;;;;;;;;;;17.14;99.20;102491.06;4880369;29;19916;-96
2023/10/08 10:09:57;;;;;;;;;;;;;;;17.13;98.93;102494.59;4878691;29;19916;-96
2023/10/08 10:12:48;;;;;;;;;;;;;;;17.26;99.16;102492.22;4881354;29;19915;-96
2023/10/08 10:15:28;;;;;;;;;;;;;;;17.46;98.31;102496.16;4862527;29;19900;-96
2023/10/08 10:17:55;;;;;;;;;;;;;;;17.55;98.48;102503.38;4874671;29;19927;-96
2023/10/08 10:20:21;;;;;;;;;;;;;;;17.58;97.94;102502.56;4888407;29;19922;-96
2023/10/08 10:22:55;;;;;;;;;;;;;;;17.64;98.38;102513.22;4860379;29;19951;-96
2023/10/08 10:25:29;;;;;;;;;;;;;;;17.76;98.14;102516.13;4865298;29;19983;-96
2023/10/08 10:28:04;;;;;;;;;;;;;;;17.86;98.03;102512.81;4876960;29;20345;-96
2023/10/08 10:30:39;;;;;;;;;;;;;;;17.86;97.91;102510.19;4862743;29;19919;-96
2023/10/08 10:33:06;;;;;;;;;;;;;;;17.80;97.26;102499.53;4884959;29;19926;-96
2023/10/08 10:35:34;;;;;;;;;;;;;;;17.72;98.08;102494.06;4850963;29;19912;-96
2023/10/08 10:38:09;;;;;;;;;;;;;;;17.69;97.95;102501.94;4869045;29;19916;-96
2023/10/08 10:40:56;;;;;;;;;;;;;;;17.74;97.84;102507.28;4864805;29;19900;-96
2023/10/08 10:44:08;;;;;;;;;;;;;;;17.78;98.03;102501.22;4895655;29;19944;-96
2023/10/08 10:46:42;;;;;;;;;;;;;;;17.73;97.53;102514.31;4880623;29;19916;-96
2023/10/08 10:49:30;;;;;;;;;;;;;;;17.73;97.86;102529.25;4866649;29;19924;-96
2023/10/08 10:51:58;;;;;;;;;;;;;;;17.72;97.83;102524.84;4881800;29;19959;-96
2023/10/08 10:54:36;;;;;;;;;;;;;;;17.71;98.18;102513.41;4874336;29;19916;-96
2023/10/08 10:57:09;;;;;;;;;;;;;;;17.68;98.19;102517.72;4877081;29;19916;-96
2023/10/08 10:59:52;;;;;;;;;;;;;;;17.67;98.31;102523.84;4875047;29;19955;-96
2023/10/08 11:02:46;;;;;;;;;;;;;;;17.67;98.05;102521.19;4882609;29;19924;-96
2023/10/08 11:05:19;;;;;;;;;;;;;;;17.63;98.32;102520.25;4906993;29;20022;-96
2023/10/08 11:07:58;;;;;;;;;;;;;;;17.62;98.00;102523.75;4897095;29;20187;-96
2023/10/08 11:10:30;;;;;;;;;;;;;;;17.59;98.25;102533.34;4899012;29;19919;-96
2023/10/08 11:13:01;;;;;;;;;;;;;;;17.60;98.47;102529.84;4887652;29;19954;-96
2023/10/08 11:31:42;;;;;;;;;;;;;;;17.50;98.13;102523.50;5777167;23;19916;-96
2023/10/08 11:34:02;;;;;;;;;;;;;;;17.45;98.58;102514.59;4894678;29;19931;-96
2023/10/08 11:36:42;;;;;;;;;;;;;;;17.51;98.27;102507.72;4882073;29;20402;-96
2023/10/08 11:39:21;;;;;;;;;;;;;;;17.47;98.37;102516.41;4887847;29;20010;-96
2023/10/08 11:41:55;;;;;;;;;;;;;;;17.47;98.11;102505.88;4884379;29;19919;-96
2023/10/08 11:44:23;;;;;;;;;;;;;;;17.47;97.87;102508.50;4884508;29;19919;-96
2023/10/08 11:47:04;;;;;;;;;;;;;;;17.46;97.57;102511.97;4896890;29;19919;-96
2023/10/08 11:49:32;;;;;;;;;;;;;;;17.42;97.62;102512.75;4884445;29;19915;-96
2023/10/08 11:52:00;;;;;;;;;;;;;;;17.39;97.06;102504.78;4888477;29;20058;-96
2023/10/08 11:54:27;;;;;;;;;;;;;;;17.34;98.13;102507.34;4891056;29;19987;-96
2023/10/08 11:56:58;;;;;;;;;;;;;;;17.34;97.74;102502.06;4885162;29;19963;-96
2023/10/08 11:59:33;;;;;;;;;;;;;;;17.32;97.87;102494.97;4889318;29;19916;-96
2023/10/08 12:02:01;;;;;;;;;;;;;;;17.35;97.73;102489.78;4888619;29;19916;-96
2023/10/08 12:04:36;;;;;;;;;;;;;;;17.34;97.78;102495.91;4896835;29;19923;-96
2023/10/08 12:09:55;;;;;;;;;;;;;;;17.25;97.58;102486.06;4915560;29;19915;-96
2023/10/08 12:12:23;;;;;;;;;;;;;;;17.22;98.10;102486.00;4892969;29;19915;-96
2023/10/08 12:14:54;;;;;;;;;;;;;;;17.26;98.02;102476.41;4886808;29;19915;-96
2023/10/08 12:17:30;;;;;;;;;;;;;;;17.31;97.79;102482.69;4892450;29;19916;-96
2023/10/08 12:19:57;;;;;;;;;;;;;;;17.36;97.87;102478.38;4888823;29;20396;-96
2023/10/08 12:22:22;;;;;;;;;;;;;;;17.40;97.67;102471.44;4889986;29;20014;-96
2023/10/08 12:25:00;;;;;;;;;;;;;;;17.39;97.54;102465.28;4889581;29;20053;-96
2023/10/08 12:27:49;;;;;;;;;;;;;;;17.38;97.19;102472.28;4911479;29;19923;-96
2023/10/08 12:30:25;;;;;;;;;;;;;;;17.35;97.87;102477.50;4891768;29;19916;-96
2023/10/08 15:39:04;;;;;;;;;;;;;;;19.22;93.28;102298.53;3996116;23;19927;-96
2023/10/08 15:44:07;;;;;;;;;;;;;;;19.06;93.15;102291.28;5744182;23;19931;-96
2023/10/08 15:46:39;;;;;;;;;;;;;;;19.01;93.54;102293.88;4878524;29;19923;-96
2023/10/08 15:49:09;;;;;;;;;;;;;;;18.91;93.52;102295.50;4878293;29;19915;-96
2023/10/08 15:51:38;;;;;;;;;;;;;;;18.88;93.85;102303.41;4888406;29;19999;-96
2023/10/08 15:54:20;;;;;;;;;;;;;;;18.83;93.86;102299.81;4884603;29;20006;-96
2023/10/08 15:56:48;;;;;;;;;;;;;;;18.79;93.93;102299.75;4886303;29;19985;-96
2023/10/08 15:59:18;;;;;;;;;;;;;;;18.74;94.07;102297.03;4882943;29;19923;-96
2023/10/08 16:01:57;;;;;;;;;;;;;;;18.72;94.14;102297.00;4886526;29;19922;-96
2023/10/08 16:04:50;;;;;;;;;;;;;;;18.70;94.09;102296.13;4897297;29;20388;-96
2023/10/08 16:07:25;;;;;;;;;;;;;;;18.66;94.42;102296.06;4896222;29;19923;-96
2023/10/08 16:13:01;;;;;;;;;;;;;;;18.55;94.53;102293.25;5109513;23;19927;-96
2023/10/08 16:15:26;;;;;;;;;;;;;;;18.50;95.03;102290.56;4903935;29;19915;-96
2023/10/08 16:17:56;;;;;;;;;;;;;;;18.46;94.93;102287.84;4904955;29;19922;-96
2023/10/08 16:20:25;;;;;;;;;;;;;;;18.43;95.15;102291.34;4905293;29;19915;-96
2023/10/08 16:22:54;;;;;;;;;;;;;;;18.40;95.27;102293.94;4909184;29;19919;-96
2023/10/08 16:25:19;;;;;;;;;;;;;;;18.36;95.48;102294.75;4910254;29;19915;-96
2023/10/08 16:27:48;;;;;;;;;;;;;;;18.36;95.38;102300.03;4898265;29;19919;-96
2023/10/08 16:30:23;;;;;;;;;;;;;;;18.33;95.41;102297.34;4896434;29;19922;-96
2023/10/08 16:32:57;;;;;;;;;;;;;;;18.28;95.33;102299.03;4910711;29;19950;-96
2023/10/08 16:35:25;;;;;;;;;;;;;;;18.22;95.28;102300.72;4908840;29;19915;-96
2023/10/08 16:37:54;;;;;;;;;;;;;;;18.21;95.45;102295.41;4906349;29;20011;-96
2023/10/08 16:40:33;;;;;;;;;;;;;;;18.18;95.49;102293.63;4909417;29;19919;-96
2023/10/08 16:43:20;;;;;;;;;;;;;;;18.09;95.95;102296.13;5171662;23;19934;-96
2023/10/08 16:48:55;;;;;;;;;;;;;;;17.86;96.08;102301.00;5269534;23;19931;-96
2023/10/08 16:51:44;;;;;;;;;;;;;;;;;;;;;
2023/10/08 16:54:40;;;;;;;;;;;;;;;17.75;96.11;102297.28;4920547;29;19910;-96
2023/10/08 16:57:24;;;;;;;;;;;;;;;17.64;96.37;102299.72;4937636;29;19923;-96
2023/10/08 16:59:57;;;;;;;;;;;;;;;17.59;96.46;102302.28;4914388;29;19915;-96
2023/10/08 17:02:29;;;;;;;;;;;;;;;17.54;96.50;102302.19;4916138;29;19915;-96
2023/10/08 17:04:55;;;;;;;;;;;;;;;17.48;96.68;102299.47;4915950;29;19954;-96
2023/10/08 17:07:22;;;;;;;;;;;;;;;17.33;96.74;102293.88;4900567;29;19915;-96
2023/10/08 17:09:51;;;;;;;;;;;;;;;17.21;97.16;102291.91;5108929;23;19927;-96
2023/10/08 17:12:19;;;;;;;;;;;;;;;17.10;97.58;102286.41;4913425;29;20448;-96
2023/10/08 17:14:44;;;;;;;;;;;;;;;17.05;97.43;102288.09;4927517;29;19923;-96
2023/10/08 17:17:16;;;;;;;;;;;;;;;16.99;97.44;102282.72;4928905;29;19915;-96
2023/10/08 17:19:56;;;;;;;;;;;;;;;16.96;97.55;102283.53;4929423;29;20290;-97
2023/10/08 17:22:21;;;;;;;;;;;;;;;16.96;97.57;102280.00;4923330;29;20594;-96
2023/10/08 17:24:55;;;;;;;;;;;;;;;16.91;97.58;102279.03;4921321;29;19919;-96
2023/10/08 17:27:23;;;;;;;;;;;;;;;16.83;97.66;102282.34;4937794;29;19915;-96
2023/10/08 17:29:57;;;;;;;;;;;;;;;16.78;98.02;102278.72;4928673;29;19914;-96
2023/10/08 17:32:26;;;;;;;;;;;;;;;16.75;97.77;102280.41;4927626;29;19927;-96
2023/10/08 17:35:02;;;;;;;;;;;;;;;16.71;97.84;102276.81;4928057;29;19919;-96
2023/10/08 17:37:47;;;;;;;;;;;;;;;16.63;98.24;102279.28;4940567;29;19938;-97
2023/10/08 17:43:25;;;;;;;;;;;;;;;16.45;99.17;102279.78;4951695;29;19930;-96
2023/10/08 17:45:53;;;;;;;;;;;;;;;16.39;98.67;102271.75;4922417;29;20013;-96
2023/10/08 17:48:23;;;;;;;;;;;;;;;16.38;98.83;102276.97;4920825;29;20324;-96
2023/10/08 17:50:50;;;;;;;;;;;;;;;16.34;98.79;102284.78;4925595;29;19918;-96
2023/10/08 17:53:30;;;;;;;;;;;;;;;16.29;98.86;102286.44;4937307;29;19919;-96
2023/10/08 17:55:56;;;;;;;;;;;;;;;16.22;98.68;102283.63;4934197;29;19915;-96
2023/10/08 17:58:40;;;;;;;;;;;;;;;;;;;;;
2023/10/08 18:01:26;;;;;;;;;;;;;;;16.13;99.46;102265.88;4962155;29;19999;-96
2023/10/08 18:04:15;;;;;;;;;;;;;;;16.06;99.06;102249.09;4931160;29;19919;-96
2023/10/08 18:06:44;;;;;;;;;;;;;;;16.07;99.78;102258.72;4918491;29;19923;-96
2023/10/08 18:09:20;;;;;;;;;;;;;;;16.08;99.25;102250.00;4931142;29;20361;-96
2023/10/08 18:12:01;;;;;;;;;;;;;;;16.08;99.57;102249.13;4930547;29;19927;-96
2023/10/08 18:14:38;;;;;;;;;;;;;;;16.09;99.54;102253.50;4907462;29;19923;-96
2023/10/08 18:17:05;;;;;;;;;;;;;;;16.10;99.14;102248.28;4882339;29;20001;-96
2023/10/08 18:19:35;;;;;;;;;;;;;;;16.09;99.16;102245.63;4882018;29;19971;-96
2023/10/08 18:22:10;;;;;;;;;;;;;;;16.08;99.62;102223.72;4882210;29;20453;-96
2023/10/08 18:24:38;;;;;;;;;;;;;;;16.08;99.27;102228.09;4882684;29;19924;-96
2023/10/08 18:27:12;;;;;;;;;;;;;;;16.08;99.17;102231.59;4884824;29;19920;-96
2023/10/08 18:29:41;;;;;;;;;;;;;;;16.07;99.24;102218.41;4883065;29;19954;-96
2023/10/08 18:32:10;;;;;;;;;;;;;;;16.04;99.35;102224.47;4880674;29;19923;-96
2023/10/08 18:34:38;;;;;;;;;;;;;;;16.02;99.13;102220.94;4900281;29;19923;-96
2023/10/08 18:37:09;;;;;;;;;;;;;;;16.01;99.36;102213.91;4892541;29;19920;-96
2023/10/08 18:39:42;;;;;;;;;;;;;;;16.01;99.22;102218.28;4886619;29;20351;-96
2023/10/08 18:42:13;;;;;;;;;;;;;;;16.00;99.16;102222.63;4891851;29;19939;-96
2023/10/08 18:44:46;;;;;;;;;;;;;;;15.96;99.39;102215.53;4888012;29;19924;-96
2023/10/08 18:47:22;;;;;;;;;;;;;;;15.94;99.16;102214.63;4878751;29;19960;-96
2023/10/08 18:49:56;;;;;;;;;;;;;;;15.92;99.26;102211.94;4901480;29;20014;-96
2023/10/08 18:52:50;;;;;;;;;;;;;;;15.86;99.16;102197.75;4913974;29;20342;-96
2023/10/08 18:55:29;;;;;;;;;;;;;;;15.80;99.22;102193.25;4922905;29;19915;-96
2023/10/08 18:58:01;;;;;;;;;;;;;;;15.71;99.49;102193.88;4920056;29;19935;-96
2023/10/08 19:00:32;;;;;;;;;;;;;;;15.68;99.75;102187.69;4919793;29;19916;-96
2023/10/08 19:03:09;;;;;;;;;;;;;;;15.67;99.81;102181.56;4919301;29;19919;-96
2023/10/08 19:05:37;;;;;;;;;;;;;;;15.66;100.00;102185.03;4925837;29;20253;-96
2023/10/08 19:08:11;;;;;;;;;;;;;;;15.60;100.00;102180.50;4926805;29;19923;-96
2023/10/08 19:11:15;;;;;;;;;;;;;;;;;;;;;
2023/10/08 19:13:49;;;;;;;;;;;;;;;15.52;100.00;102170.66;4924019;29;20014;-96
2023/10/08 19:48:50;;;;;;;;;;;;;;;15.30;100.00;102155.25;5136567;23;19927;-96
2023/10/08 19:51:18;;;;;;;;;;;;;;;15.29;100.00;102142.06;4921934;29;20432;-95
2023/10/08 19:53:48;;;;;;;;;;;;;;;15.29;100.00;102142.97;4925496;29;20404;-96
2023/10/08 19:56:17;;;;;;;;;;;;;;;15.27;100.00;102141.16;4930473;29;19914;-96
2023/10/08 19:58:43;;;;;;;;;;;;;;;15.25;100.00;102137.59;4935137;29;20377;-96
2023/10/08 20:01:09;;;;;;;;;;;;;;;15.22;100.00;102141.06;4921882;29;19915;-96
2023/10/08 20:03:34;;;;;;;;;;;;;;;15.21;100.00;102138.38;4922208;29;20381;-96
2023/10/08 20:06:02;;;;;;;;;;;;;;;15.18;100.00;102133.94;4928767;29;20369;-96
2023/10/08 20:08:28;;;;;;;;;;;;;;;15.16;100.00;102137.38;4927495;29;20009;-96
2023/10/08 20:11:13;;;;;;;;;;;;;;;15.11;100.00;102138.13;4921540;29;19915;-96
2023/10/08 20:13:40;;;;;;;;;;;;;;;15.08;100.00;102127.56;4929217;29;20526;-96
2023/10/08 20:16:10;;;;;;;;;;;;;;;15.04;100.00;102132.69;4932705;29;19915;-96